<?xml version="1.0" encoding="UTF-8" standalone="no" ?>
<gpx xmlns="http://www.topografix.com/GPX/1/1" xmlns:xsi="http://www.w3.org/2001/XMLSchema-instance" xsi:schemaLocation="http://www.topografix.com/GPX/1/1 http://www.topografix.com/GPX/1/1/gpx.xsd" version="1.1" creator="VisuGPX - https://www.visugpx.com">
  <metadata>
    <name>Argentina</name>
    <desc><![CDATA[Downloaded from eMap Software Version 2.75]]></desc>
  </metadata>
  <trk>
    <name><![CDATA[Argentina_15]]></name>
    <extensions>
      <line xmlns="http://www.topografix.com/GPX/gpx_style/0/2">
        <color>ff0000</color>
        <opacity>0.78</opacity>
        <width>0.6000</width>
      </line>
    </extensions>
    <trkseg>
      <trkpt lat="-26.83185" lon="-65.19375">
        <ele>405.813721</ele>
        <time>2005-12-11T18:45:31Z</time>
      </trkpt>
      <trkpt lat="-26.83166" lon="-65.19386">
        <ele>405.813721</ele>
        <time>2005-12-11T18:45:45Z</time>
      </trkpt>
      <trkpt lat="-26.83168" lon="-65.19392">
        <ele>412.062256</ele>
        <time>2005-12-11T18:45:56Z</time>
      </trkpt>
      <trkpt lat="-26.83157" lon="-65.19435">
        <ele>415.42688</ele>
        <time>2005-12-11T18:46:04Z</time>
      </trkpt>
      <trkpt lat="-26.83136" lon="-65.1954">
        <ele>420.714111</ele>
        <time>2005-12-11T18:46:16Z</time>
      </trkpt>
      <trkpt lat="-26.83115" lon="-65.19641">
        <ele>425.040161</ele>
        <time>2005-12-11T18:46:28Z</time>
      </trkpt>
      <trkpt lat="-26.83115" lon="-65.19646">
        <ele>428.404663</ele>
        <time>2005-12-11T18:46:37Z</time>
      </trkpt>
      <trkpt lat="-26.8311" lon="-65.19676">
        <ele>431.769165</ele>
        <time>2005-12-11T18:46:54Z</time>
      </trkpt>
      <trkpt lat="-26.83091" lon="-65.19787">
        <ele>433.691895</ele>
        <time>2005-12-11T18:47:09Z</time>
      </trkpt>
      <trkpt lat="-26.83078" lon="-65.19856">
        <ele>434.172607</ele>
        <time>2005-12-11T18:47:19Z</time>
      </trkpt>
      <trkpt lat="-26.83057" lon="-65.19976">
        <ele>435.614502</ele>
        <time>2005-12-11T18:47:32Z</time>
      </trkpt>
      <trkpt lat="-26.8305" lon="-65.20008">
        <ele>435.614502</ele>
        <time>2005-12-11T18:47:36Z</time>
      </trkpt>
      <trkpt lat="-26.83048" lon="-65.20023">
        <ele>437.056519</ele>
        <time>2005-12-11T18:47:41Z</time>
      </trkpt>
      <trkpt lat="-26.83033" lon="-65.2009">
        <ele>438.498535</ele>
        <time>2005-12-11T18:47:51Z</time>
      </trkpt>
      <trkpt lat="-26.83016" lon="-65.20191">
        <ele>438.498535</ele>
        <time>2005-12-11T18:48:05Z</time>
      </trkpt>
      <trkpt lat="-26.83007" lon="-65.20268">
        <ele>438.498535</ele>
        <time>2005-12-11T18:48:18Z</time>
      </trkpt>
      <trkpt lat="-26.83003" lon="-65.20289">
        <ele>438.498535</ele>
        <time>2005-12-11T18:48:31Z</time>
      </trkpt>
      <trkpt lat="-26.82994" lon="-65.2033">
        <ele>438.979126</ele>
        <time>2005-12-11T18:48:37Z</time>
      </trkpt>
      <trkpt lat="-26.82975" lon="-65.20375">
        <ele>439.459717</ele>
        <time>2005-12-11T18:48:51Z</time>
      </trkpt>
      <trkpt lat="-26.82979" lon="-65.20362">
        <ele>439.459717</ele>
        <time>2005-12-11T18:49:06Z</time>
      </trkpt>
      <trkpt lat="-26.82973" lon="-65.2042">
        <ele>439.94043</ele>
        <time>2005-12-11T18:49:18Z</time>
      </trkpt>
      <trkpt lat="-26.82973" lon="-65.20424">
        <ele>439.94043</ele>
        <time>2005-12-11T18:49:30Z</time>
      </trkpt>
      <trkpt lat="-26.82973" lon="-65.2042">
        <ele>438.979126</ele>
        <time>2005-12-11T18:49:48Z</time>
      </trkpt>
      <trkpt lat="-26.82994" lon="-65.20437">
        <ele>439.459717</ele>
        <time>2005-12-11T18:49:53Z</time>
      </trkpt>
      <trkpt lat="-26.83082" lon="-65.20459">
        <ele>439.94043</ele>
        <time>2005-12-11T18:50:11Z</time>
      </trkpt>
      <trkpt lat="-26.831" lon="-65.20437">
        <ele>440.901855</ele>
        <time>2005-12-11T18:50:16Z</time>
      </trkpt>
      <trkpt lat="-26.8314" lon="-65.20272">
        <ele>440.901855</ele>
        <time>2005-12-11T18:50:38Z</time>
      </trkpt>
      <trkpt lat="-26.83142" lon="-65.20244">
        <ele>442.824463</ele>
        <time>2005-12-11T18:50:49Z</time>
      </trkpt>
      <trkpt lat="-26.83136" lon="-65.2024">
        <ele>443.305054</ele>
        <time>2005-12-11T18:51:06Z</time>
      </trkpt>
      <trkpt lat="-26.83153" lon="-65.20225">
        <ele>453.398926</ele>
        <time>2005-12-11T18:52:36Z</time>
      </trkpt>
      <trkpt lat="-26.83155" lon="-65.20248">
        <ele>455.802246</ele>
        <time>2005-12-11T18:53:10Z</time>
      </trkpt>
    </trkseg>
  </trk>
</gpx>